Time;durP1;ratioP1;P1;durP2;ratioP2;P2;SDS_P1;SDS_P2;PMS_P1;PMS_P2;Temp;Humidity;BMP_temperature;BMP_pressure;BME280_temperature;BME280_humidity;BME280_pressure;Samples;Min_cycle;Max_cycle;Signal;HPM_P1;HPM_P2
2021/08/12 00:01:59;;;;;;;3.58;3.25;;;22.10;72.40;;;;;;5091321;28;20044;-49
2021/08/12 00:04:25;;;;;;;3.67;2.70;;;22.10;72.40;;;;;;5089900;28;20483;-43
2021/08/12 00:06:50;;;;;;;3.63;3.17;;;22.10;72.50;;;;;;5090904;28;20116;-45
2021/08/12 00:09:16;;;;;;;3.75;3.17;;;22.10;72.50;;;;;;5089480;28;20052;-44
2021/08/12 00:11:42;;;;;;;3.45;2.95;;;22.10;72.50;;;;;;5091296;28;20044;-44
2021/08/12 00:14:07;;;;;;;3.25;2.90;;;22.10;72.50;;;;;;5091066;28;20044;-46
2021/08/12 00:16:33;;;;;;;3.83;2.90;;;22.00;72.40;;;;;;5091544;28;20174;-44
2021/08/12 00:19:00;;;;;;;3.38;2.78;;;22.00;72.40;;;;;;5091176;28;20506;-45
2021/08/12 00:21:26;;;;;;;4.85;3.00;;;22.00;72.40;;;;;;5090623;28;20056;-45
2021/08/12 00:23:53;;;;;;;3.17;2.85;;;22.00;72.40;;;;;;5090736;28;20040;-46
2021/08/12 00:26:18;;;;;;;3.60;3.05;;;22.00;72.40;;;;;;5094812;28;20054;-43
2021/08/12 00:28:44;;;;;;;2.63;2.42;;;22.00;72.40;;;;;;5094801;28;20047;-42
2021/08/12 00:31:11;;;;;;;3.30;3.00;;;22.00;73.10;;;;;;5095098;28;20056;-45
2021/08/12 00:33:37;;;;;;;2.88;2.60;;;22.00;72.40;;;;;;5094352;28;20115;-47
2021/08/12 00:36:03;;;;;;;2.97;2.60;;;22.00;72.40;;;;;;5094440;28;20151;-42
2021/08/12 00:38:29;;;;;;;4.50;3.00;;;22.00;72.40;;;;;;5092559;28;20052;-46
2021/08/12 00:40:55;;;;;;;2.72;2.28;;;22.00;72.40;;;;;;5094524;28;20055;-45
2021/08/12 00:43:21;;;;;;;3.55;2.80;;;22.00;72.40;;;;;;5094318;28;20044;-43
2021/08/12 00:45:47;;;;;;;3.08;2.78;;;22.00;72.40;;;;;;5094271;28;20101;-47
2021/08/12 00:48:12;;;;;;;3.55;2.72;;;22.00;72.50;;;;;;5095221;28;20082;-43
2021/08/12 00:50:41;;;;;;;3.15;2.83;;;22.00;72.40;;;;;;5094876;28;20123;-44
2021/08/12 00:53:07;;;;;;;3.08;2.78;;;22.00;72.50;;;;;;5094168;28;20127;-44
2021/08/12 00:55:34;;;;;;;3.33;2.80;;;22.00;72.50;;;;;;5093987;28;20111;-42
2021/08/12 00:58:02;;;;;;;2.90;2.65;;;22.00;72.40;;;;;;5094099;28;20044;-49
2021/08/12 01:00:28;;;;;;;2.95;2.70;;;22.00;72.40;;;;;;5094125;28;20381;-45
2021/08/12 01:02:54;;;;;;;3.13;2.83;;;22.00;72.40;;;;;;5093850;28;20093;-43
2021/08/12 01:05:19;;;;;;;3.53;2.78;;;22.00;72.40;;;;;;5093861;28;20637;-47
2021/08/12 01:08:11;;;;;;;3.33;2.75;;;22.00;72.40;;;;;;5093805;28;20040;-43
2021/08/12 01:10:48;;;;;;;3.70;2.75;;;22.00;72.40;;;;;;5092431;28;20424;-44
2021/08/12 01:13:25;;;;;;;3.17;2.88;;;22.00;72.40;;;;;;5092221;28;20476;-44
2021/08/12 01:15:55;;;;;;;3.15;2.72;;;22.00;72.40;;;;;;5092989;28;20585;-47
2021/08/12 01:18:41;;;;;;;3.75;2.95;;;22.00;72.50;;;;;;5093941;28;20440;-47
2021/08/12 01:21:19;;;;;;;3.50;2.50;;;22.00;72.40;;;;;;5093634;28;20051;-46
2021/08/12 01:23:45;;;;;;;3.13;2.78;;;22.00;72.50;;;;;;5093040;28;20127;-47
2021/08/12 01:26:14;;;;;;;3.13;2.70;;;22.00;72.40;;;;;;5093631;28;20044;-42
2021/08/12 01:28:46;;;;;;;2.60;2.40;;;22.00;72.50;;;;;;5092206;28;20044;-48
2021/08/12 01:31:11;;;;;;;3.05;2.75;;;22.00;72.50;;;;;;5090205;28;20503;-48
2021/08/12 01:34:14;;;;;;;2.83;2.53;;;22.00;72.50;;;;;;5093923;28;20078;-45
2021/08/12 01:36:42;;;;;;;2.72;2.40;;;22.00;72.50;;;;;;5090982;28;20051;-48
2021/08/12 01:39:13;;;;;;;2.70;2.50;;;22.00;72.50;;;;;;5093187;28;20123;-46
2021/08/12 01:41:41;;;;;;;3.88;2.80;;;21.90;72.40;;;;;;5093398;28;20080;-42
2021/08/12 01:44:08;;;;;;;2.72;2.50;;;21.90;72.40;;;;;;5092863;28;20048;-44
2021/08/12 01:46:35;;;;;;;4.90;2.60;;;22.00;72.50;;;;;;5093088;28;20552;-40
2021/08/12 01:49:03;;;;;;;2.55;2.20;;;22.00;72.50;;;;;;5093660;28;20055;-45
2021/08/12 01:51:31;;;;;;;2.85;2.20;;;21.90;72.40;;;;;;5090600;28;20051;-48
2021/08/12 01:53:59;;;;;;;3.42;2.50;;;21.90;72.40;;;;;;5093631;28;20054;-45
2021/08/12 01:56:27;;;;;;;2.15;1.98;;;21.90;72.40;;;;;;5092089;28;20044;-44
2021/08/12 01:58:58;;;;;;;2.63;2.33;;;21.90;72.40;;;;;;5092455;28;20495;-49
2021/08/12 02:01:24;;;;;;;2.40;2.20;;;21.90;72.50;;;;;;5092876;28;20040;-44
2021/08/12 02:03:50;;;;;;;2.67;2.47;;;21.90;72.50;;;;;;5092516;28;20101;-45
2021/08/12 02:06:19;;;;;;;2.40;1.98;;;21.90;72.50;;;;;;5092872;28;20047;-44
2021/08/12 02:08:44;;;;;;;2.35;2.15;;;21.90;72.50;;;;;;5093178;28;20051;-44
2021/08/12 02:11:11;;;;;;;2.03;1.83;;;21.90;72.50;;;;;;5092422;28;20047;-44
2021/08/12 02:13:37;;;;;;;2.85;2.55;;;21.90;72.50;;;;;;5093160;28;20066;-48
2021/08/12 02:16:08;;;;;;;2.15;1.95;;;21.90;72.50;;;;;;5092619;28;20402;-43
2021/08/12 02:18:34;;;;;;;2.45;2.25;;;21.90;72.50;;;;;;5090689;28;20050;-46
2021/08/12 02:21:07;;;;;;;2.90;2.47;;;21.90;72.50;;;;;;5092731;28;20535;-45
2021/08/12 02:23:36;;;;;;;2.28;2.08;;;21.90;72.50;;;;;;5090993;28;20148;-46
2021/08/12 02:26:07;;;;;;;2.50;2.30;;;21.90;72.50;;;;;;5092404;28;20048;-46
2021/08/12 02:28:34;;;;;;;2.55;2.00;;;21.90;72.50;;;;;;5090120;28;20071;-46
2021/08/12 02:31:05;;;;;;;2.67;2.47;;;21.90;72.60;;;;;;5092602;28;20374;-46
2021/08/12 02:33:35;;;;;;;3.20;2.40;;;21.90;73.20;;;;;;5090521;28;20039;-46
2021/08/12 02:36:05;;;;;;;2.88;2.03;;;21.90;72.50;;;;;;5092091;28;20495;-44
2021/08/12 02:38:32;;;;;;;2.58;2.38;;;21.90;72.50;;;;;;5089749;28;20229;-45
2021/08/12 02:40:58;;;;;;;2.30;2.10;;;21.90;72.50;;;;;;5092698;28;20047;-43
2021/08/12 02:43:25;;;;;;;2.20;2.00;;;21.90;72.50;;;;;;5092030;28;20144;-45
2021/08/12 02:45:54;;;;;;;2.25;2.05;;;21.90;72.60;;;;;;5091999;28;20114;-42
2021/08/12 02:48:24;;;;;;;2.25;1.92;;;21.90;72.60;;;;;;5092052;28;20048;-41
2021/08/12 02:50:51;;;;;;;2.15;1.95;;;21.90;72.60;;;;;;5092449;28;20044;-46
2021/08/12 02:53:17;;;;;;;2.08;1.80;;;21.90;72.60;;;;;;5092546;28;20044;-43
2021/08/12 02:55:45;;;;;;;2.50;2.20;;;21.90;72.60;;;;;;5091947;28;20502;-43
2021/08/12 02:58:11;;;;;;;2.35;2.15;;;21.90;72.50;;;;;;5088976;28;20044;-45
2021/08/12 03:00:38;;;;;;;2.10;1.90;;;21.90;72.60;;;;;;5091996;28;20054;-44
2021/08/12 03:03:06;;;;;;;2.08;1.88;;;21.90;72.60;;;;;;5092034;28;20044;-45
2021/08/12 03:05:35;;;;;;;2.30;2.10;;;21.90;72.60;;;;;;5089254;28;20063;-48
2021/08/12 03:08:02;;;;;;;2.20;2.00;;;21.90;72.60;;;;;;5091672;28;20467;-43
2021/08/12 03:10:29;;;;;;;1.75;1.63;;;21.80;72.60;;;;;;5091658;28;20040;-44
2021/08/12 03:12:58;;;;;;;2.33;2.13;;;21.90;72.60;;;;;;5091892;28;20400;-43
2021/08/12 03:15:25;;;;;;;2.03;1.88;;;21.90;72.60;;;;;;5091418;28;20431;-47
2021/08/12 03:17:52;;;;;;;2.42;2.22;;;21.90;72.60;;;;;;5091683;28;20063;-44
2021/08/12 03:20:18;;;;;;;1.92;1.77;;;21.80;72.60;;;;;;5091767;28;20123;-40
2021/08/12 03:22:47;;;;;;;1.95;1.83;;;21.90;72.60;;;;;;5092063;28;20185;-47
2021/08/12 03:25:13;;;;;;;1.90;1.80;;;21.90;72.60;;;;;;5091466;28;20032;-44
2021/08/12 03:27:38;;;;;;;2.20;2.00;;;21.80;72.60;;;;;;5091470;28;20139;-44
2021/08/12 03:30:05;;;;;;;1.70;1.60;;;21.80;72.60;;;;;;5091141;28;20170;-43
2021/08/12 03:32:31;;;;;;;2.03;1.83;;;21.90;72.60;;;;;;5089955;28;20048;-44
2021/08/12 03:34:56;;;;;;;2.30;2.10;;;21.80;72.60;;;;;;5091520;28;20161;-43
2021/08/12 03:37:22;;;;;;;1.98;1.75;;;21.80;72.60;;;;;;5090918;28;20044;-42
2021/08/12 03:39:48;;;;;;;2.25;2.05;;;21.80;72.60;;;;;;5091322;28;20173;-48
2021/08/12 03:42:14;;;;;;;1.80;1.70;;;21.80;72.60;;;;;;5091108;28;20063;-45
2021/08/12 03:44:40;;;;;;;2.00;1.80;;;21.80;72.60;;;;;;5091344;28;20044;-45
2021/08/12 03:47:06;;;;;;;1.92;1.73;;;21.90;72.70;;;;;;5090629;28;20123;-43
2021/08/12 03:49:32;;;;;;;1.90;1.70;;;21.80;72.60;;;;;;5091414;28;20484;-46
2021/08/12 03:51:58;;;;;;;1.90;1.80;;;21.80;72.60;;;;;;5091038;28;20043;-43
2021/08/12 03:54:24;;;;;;;1.70;1.60;;;21.80;72.80;;;;;;5090920;28;20036;-46
2021/08/12 03:56:50;;;;;;;2.00;1.90;;;21.80;72.60;;;;;;5087954;28;20040;-46
2021/08/12 03:59:15;;;;;;;1.67;1.58;;;21.80;72.60;;;;;;5089958;28;20051;-44
2021/08/12 04:01:41;;;;;;;1.80;1.70;;;21.80;72.60;;;;;;5090038;28;20399;-44
2021/08/12 04:04:07;;;;;;;2.10;1.80;;;21.80;72.60;;;;;;5089813;28;20040;-42
2021/08/12 04:06:33;;;;;;;1.55;1.45;;;21.80;72.60;;;;;;5089919;28;20066;-44
2021/08/12 04:08:59;;;;;;;1.70;1.60;;;21.80;72.60;;;;;;5088789;28;20071;-44
2021/08/12 04:11:24;;;;;;;1.80;1.70;;;21.80;72.60;;;;;;5090173;28;20048;-43
2021/08/12 04:13:50;;;;;;;1.70;1.60;;;21.80;72.60;;;;;;5088036;28;20132;-43
2021/08/12 04:16:16;;;;;;;1.77;1.65;;;21.80;72.60;;;;;;5090962;28;20047;-44
2021/08/12 04:18:41;;;;;;;2.00;1.80;;;21.80;72.60;;;;;;5090622;28;20040;-47
2021/08/12 04:21:07;;;;;;;1.52;1.35;;;21.80;72.60;;;;;;5090914;28;20077;-43
2021/08/12 04:23:33;;;;;;;2.20;2.00;;;21.80;72.70;;;;;;5091162;28;20070;-48
2021/08/12 04:25:59;;;;;;;1.60;1.50;;;21.80;72.70;;;;;;5090772;28;20115;-45
2021/08/12 04:28:25;;;;;;;1.42;1.33;;;21.80;72.70;;;;;;5090463;28;20052;-48
2021/08/12 04:30:50;;;;;;;1.70;1.60;;;21.80;72.70;;;;;;5088548;28;20472;-45
2021/08/12 04:33:17;;;;;;;1.55;1.45;;;21.80;72.70;;;;;;5090484;28;20068;-47
2021/08/12 04:35:43;;;;;;;1.60;1.50;;;21.70;72.60;;;;;;5090693;28;20094;-44
2021/08/12 04:38:10;;;;;;;1.63;1.52;;;21.80;72.70;;;;;;5090794;28;20503;-43
2021/08/12 04:40:35;;;;;;;1.88;1.50;;;21.80;72.70;;;;;;5091383;28;20353;-45
2021/08/12 04:43:02;;;;;;;1.70;1.60;;;21.80;72.70;;;;;;5091201;28;20048;-48
2021/08/12 04:45:28;;;;;;;1.60;1.50;;;21.80;72.70;;;;;;5090844;28;20151;-44
2021/08/12 04:48:02;;;;;;;1.50;1.40;;;21.80;72.70;;;;;;5090476;28;20059;-46
2021/08/12 04:50:28;;;;;;;1.60;1.50;;;21.70;72.70;;;;;;5090815;28;20044;-47
2021/08/12 04:52:54;;;;;;;1.40;1.30;;;21.70;72.60;;;;;;5091059;28;20036;-46
2021/08/12 04:55:20;;;;;;;2.25;2.05;;;21.80;72.70;;;;;;5089332;28;20048;-42
2021/08/12 04:57:46;;;;;;;1.65;1.30;;;21.70;72.60;;;;;;5090141;28;20081;-42
2021/08/12 05:00:12;;;;;;;1.60;1.50;;;21.70;72.70;;;;;;5090499;28;20427;-45
2021/08/12 05:02:38;;;;;;;1.60;1.50;;;21.70;72.70;;;;;;5089766;28;20039;-47
2021/08/12 05:05:04;;;;;;;1.65;1.55;;;21.70;72.70;;;;;;5090420;28;20036;-45
2021/08/12 05:07:30;;;;;;;1.60;1.50;;;21.70;72.70;;;;;;5087399;28;20047;-47
2021/08/12 05:09:56;;;;;;;1.50;1.40;;;21.70;72.70;;;;;;5090850;28;20115;-43
2021/08/12 05:12:22;;;;;;;1.60;1.50;;;21.70;72.70;;;;;;5092750;28;20040;-49
2021/08/12 05:14:49;;;;;;;1.60;1.50;;;21.70;72.70;;;;;;5094478;28;20040;-47
2021/08/12 05:17:15;;;;;;;1.70;1.60;;;21.70;72.70;;;;;;5094273;28;20135;-44
2021/08/12 05:19:43;;;;;;;2.08;1.80;;;21.70;72.70;;;;;;5093737;28;20488;-45
2021/08/12 05:22:11;;;;;;;1.65;1.55;;;21.70;72.70;;;;;;5090323;28;20129;-48
2021/08/12 05:24:38;;;;;;;1.42;1.33;;;21.70;72.70;;;;;;5094160;28;20507;-46
2021/08/12 05:27:04;;;;;;;1.60;1.50;;;21.70;72.70;;;;;;5094278;28;20075;-48
2021/08/12 05:29:30;;;;;;;1.60;1.50;;;21.70;72.70;;;;;;5091842;28;20177;-43
2021/08/12 05:31:56;;;;;;;1.77;1.60;;;21.70;72.70;;;;;;5094199;28;20528;-43
2021/08/12 05:34:22;;;;;;;1.90;1.70;;;21.70;72.70;;;;;;5094123;28;20372;-42
2021/08/12 05:36:47;;;;;;;1.70;1.60;;;21.70;72.70;;;;;;5092127;28;20056;-42
2021/08/12 05:39:13;;;;;;;1.67;1.55;;;21.70;72.70;;;;;;5093256;28;20071;-44
2021/08/12 05:41:40;;;;;;;1.65;1.50;;;21.70;72.70;;;;;;5093178;28;20450;-47
2021/08/12 05:44:07;;;;;;;1.40;1.30;;;21.70;72.70;;;;;;5092947;28;20109;-48
2021/08/12 05:46:33;;;;;;;1.33;1.23;;;21.70;72.70;;;;;;5093122;28;20048;-47
2021/08/12 05:48:59;;;;;;;1.38;1.27;;;21.70;72.70;;;;;;5093024;28;20225;-45
2021/08/12 05:51:24;;;;;;;1.55;1.45;;;21.70;72.70;;;;;;5093153;28;20106;-41
2021/08/12 05:53:50;;;;;;;1.73;1.63;;;21.70;72.70;;;;;;5093694;28;20085;-43
2021/08/12 05:56:16;;;;;;;1.60;1.50;;;21.70;72.70;;;;;;5093423;28;20071;-45
2021/08/12 05:58:42;;;;;;;1.70;1.60;;;21.80;72.80;;;;;;5093121;28;20523;-45
2021/08/12 06:01:08;;;;;;;1.40;1.30;;;21.70;72.80;;;;;;5093047;28;20081;-46
2021/08/12 06:03:34;;;;;;;1.70;1.60;;;21.80;72.80;;;;;;5093521;28;20068;-45
2021/08/12 06:06:00;;;;;;;2.03;1.67;;;21.70;72.70;;;;;;5093698;28;20075;-44
2021/08/12 06:08:26;;;;;;;1.63;1.52;;;21.70;72.80;;;;;;5093124;28;20113;-45
2021/08/12 06:10:52;;;;;;;1.70;1.60;;;21.70;72.80;;;;;;5093117;28;20048;-44
2021/08/12 06:13:18;;;;;;;1.50;1.40;;;21.70;72.80;;;;;;5093534;28;20472;-50
2021/08/12 06:15:43;;;;;;;1.55;1.45;;;21.70;72.80;;;;;;5093045;28;20241;-45
2021/08/12 06:18:11;;;;;;;1.77;1.52;;;21.70;73.40;;;;;;5093325;28;20040;-47
2021/08/12 06:20:38;;;;;;;1.40;1.30;;;21.70;72.80;;;;;;5092636;28;20044;-45
2021/08/12 06:23:07;;;;;;;1.65;1.55;;;21.70;72.80;;;;;;5092304;28;20047;-48
2021/08/12 06:25:35;;;;;;;1.55;1.45;;;21.70;72.80;;;;;;5092923;28;20066;-45
2021/08/12 06:28:01;;;;;;;1.60;1.38;;;21.70;72.80;;;;;;5093338;28;20044;-48
2021/08/12 06:30:27;;;;;;;1.48;1.38;;;21.70;72.80;;;;;;5092273;28;20051;-45
2021/08/12 06:32:53;;;;;;;1.50;1.40;;;21.70;72.80;;;;;;5093070;28;20055;-49
2021/08/12 06:35:20;;;;;;;1.77;1.67;;;21.70;72.80;;;;;;5092538;28;20469;-39
2021/08/12 06:37:49;;;;;;;1.70;1.60;;;21.70;72.80;;;;;;5092706;28;20056;-48
2021/08/12 06:40:22;;;;;;;1.48;1.30;;;21.70;72.80;;;;;;5092230;28;20051;-41
2021/08/12 06:42:49;;;;;;;1.40;1.30;;;21.70;72.80;;;;;;5092415;28;20062;-41
2021/08/12 06:45:19;;;;;;;1.55;1.45;;;21.70;72.80;;;;;;5092445;28;20078;-45
2021/08/12 06:47:45;;;;;;;1.65;1.45;;;21.70;72.80;;;;;;5092309;28;20036;-39
2021/08/12 06:50:13;;;;;;;1.45;1.30;;;21.70;72.80;;;;;;5092320;28;20047;-44
2021/08/12 06:52:39;;;;;;;1.58;1.48;;;21.70;72.80;;;;;;5092599;28;20052;-44
2021/08/12 06:55:06;;;;;;;1.60;1.42;;;21.70;72.80;;;;;;5091816;28;20051;-41
2021/08/12 06:57:32;;;;;;;1.45;1.30;;;21.70;72.80;;;;;;5092518;28;20048;-45
2021/08/12 06:59:58;;;;;;;1.35;1.25;;;21.70;72.80;;;;;;5092728;28;20494;-43
2021/08/12 07:02:24;;;;;;;1.58;1.42;;;21.70;72.80;;;;;;5092579;28;20625;-44
2021/08/12 07:04:50;;;;;;;1.48;1.38;;;21.70;72.80;;;;;;5092561;28;20089;-43
2021/08/12 07:07:16;;;;;;;1.30;1.20;;;21.70;72.80;;;;;;5091180;28;20384;-47
2021/08/12 07:09:42;;;;;;;1.50;1.40;;;21.80;72.80;;;;;;5091952;28;20055;-44
2021/08/12 07:12:09;;;;;;;1.42;1.33;;;21.70;72.80;;;;;;5091648;28;20062;-41
2021/08/12 07:14:35;;;;;;;1.35;1.25;;;21.70;72.80;;;;;;5089740;28;20054;-44
2021/08/12 07:17:01;;;;;;;1.63;1.52;;;21.80;72.80;;;;;;5092113;28;20040;-41
2021/08/12 07:19:29;;;;;;;1.45;1.35;;;21.70;72.70;;;;;;5092388;28;20044;-46
2021/08/12 07:21:55;;;;;;;1.60;1.50;;;21.70;72.70;;;;;;5088789;28;20040;-47
2021/08/12 07:24:21;;;;;;;1.73;1.50;;;21.70;72.70;;;;;;5089541;28;20048;-46
2021/08/12 07:26:47;;;;;;;1.60;1.50;;;21.70;72.70;;;;;;5091236;28;20139;-47
2021/08/12 07:29:16;;;;;;;1.70;1.60;;;21.80;72.70;;;;;;5092126;28;20070;-44
2021/08/12 07:31:42;;;;;;;1.65;1.55;;;21.70;72.70;;;;;;5091638;28;20048;-43
2021/08/12 07:34:09;;;;;;;1.27;1.17;;;21.80;72.70;;;;;;5072956;28;20048;-47
2021/08/12 07:36:37;;;;;;;1.70;1.60;;;21.80;72.70;;;;;;5091583;28;20407;-44
2021/08/12 07:39:04;;;;;;;1.52;1.42;;;21.80;72.80;;;;;;5091752;28;20050;-43
2021/08/12 07:41:29;;;;;;;1.55;1.40;;;21.80;72.70;;;;;;5090598;28;20488;-48
2021/08/12 07:43:55;;;;;;;1.70;1.60;;;21.80;72.70;;;;;;5091716;28;20048;-41
2021/08/12 07:46:21;;;;;;;1.80;1.63;;;21.80;72.70;;;;;;5091485;28;20511;-44
2021/08/12 07:48:47;;;;;;;2.15;1.95;;;21.80;72.70;;;;;;5091463;28;20040;-43
2021/08/12 07:51:13;;;;;;;1.98;1.80;;;21.80;72.70;;;;;;5090902;28;20466;-43
2021/08/12 07:53:38;;;;;;;1.67;1.58;;;21.80;72.70;;;;;;5091463;28;20115;-45
2021/08/12 07:56:04;;;;;;;2.28;1.60;;;21.80;72.70;;;;;;5091685;28;20036;-41
2021/08/12 07:58:30;;;;;;;1.40;1.30;;;21.80;72.70;;;;;;5090796;28;20048;-46
2021/08/12 08:00:56;;;;;;;1.83;1.67;;;21.90;72.80;;;;;;5090191;28;20040;-44
2021/08/12 08:03:21;;;;;;;2.08;1.70;;;21.80;72.60;;;;;;5091094;28;20105;-45
2021/08/12 08:05:47;;;;;;;1.58;1.48;;;21.90;72.70;;;;;;5089385;28;20115;-41
2021/08/12 08:08:13;;;;;;;6.43;4.47;;;21.90;72.70;;;;;;5091111;28;20047;-43
2021/08/12 08:10:39;;;;;;;3.63;2.15;;;21.90;72.80;;;;;;5091979;28;20197;-42
2021/08/12 08:13:05;;;;;;;2.05;1.95;;;22.00;72.60;;;;;;5090862;28;20468;-45
2021/08/12 08:15:30;;;;;;;2.22;1.92;;;22.00;72.50;;;;;;5091941;28;20089;-42
2021/08/12 08:17:56;;;;;;;4.05;2.30;;;22.00;72.40;;;;;;5091253;28;20044;-46
2021/08/12 08:20:22;;;;;;;3.45;2.28;;;22.00;72.40;;;;;;5091932;28;20403;-42
2021/08/12 08:22:48;;;;;;;2.90;2.38;;;22.10;73.00;;;;;;5091496;28;20479;-40
2021/08/12 08:25:14;;;;;;;2.65;2.30;;;22.10;72.30;;;;;;5091914;28;20048;-42
2021/08/12 08:27:40;;;;;;;2.20;2.00;;;22.10;73.00;;;;;;5091840;28;20051;-44
2021/08/12 08:30:08;;;;;;;2.50;2.10;;;22.10;72.30;;;;;;5090787;28;20381;-40
2021/08/12 08:32:33;;;;;;;2.40;2.15;;;22.10;72.30;;;;;;5091146;28;20093;-41
2021/08/12 08:34:59;;;;;;;2.45;2.25;;;22.10;72.30;;;;;;5091789;28;20063;-42
2021/08/12 08:37:26;;;;;;;3.72;2.53;;;22.10;72.30;;;;;;5091286;28;20126;-42
2021/08/12 08:39:53;;;;;;;2.65;2.35;;;22.10;72.30;;;;;;5091334;28;20484;-42
2021/08/12 08:42:20;;;;;;;2.45;2.22;;;22.10;72.20;;;;;;5091385;28;20036;-42
2021/08/12 08:44:49;;;;;;;3.22;2.20;;;22.10;72.20;;;;;;5091187;28;20044;-43
2021/08/12 08:47:17;;;;;;;6.53;2.90;;;22.10;72.30;;;;;;5093532;28;20066;-43
2021/08/12 08:49:46;;;;;;;4.82;3.30;;;22.10;72.20;;;;;;5095106;28;20042;-39
2021/08/12 08:52:13;;;;;;;5.25;3.75;;;22.30;72.10;;;;;;5094714;28;20085;-44
2021/08/12 08:54:40;;;;;;;6.10;4.57;;;22.30;71.90;;;;;;5095105;28;20070;-45
2021/08/12 08:57:07;;;;;;;5.38;4.47;;;22.30;71.70;;;;;;5095051;28;20429;-43
2021/08/12 08:59:36;;;;;;;5.22;3.97;;;22.40;71.70;;;;;;5094848;28;20040;-45
2021/08/12 09:02:03;;;;;;;5.32;4.68;;;22.30;71.60;;;;;;5093969;28;20555;-45
2021/08/12 09:04:29;;;;;;;5.05;4.07;;;22.40;71.60;;;;;;5095007;28;20047;-42
2021/08/12 09:06:55;;;;;;;4.32;3.78;;;22.40;71.50;;;;;;5094946;28;20033;-43
2021/08/12 09:09:20;;;;;;;6.28;4.07;;;22.40;71.40;;;;;;5095115;28;20488;-42
2021/08/12 09:11:46;;;;;;;5.30;4.45;;;22.40;71.40;;;;;;5093542;28;20042;-43
2021/08/12 09:14:36;;;;;;;5.18;3.95;;;22.40;71.30;;;;;;5094720;28;20043;-45
2021/08/12 09:17:29;;;;;;;4.15;3.50;;;22.40;71.20;;;;;;5094400;28;20054;-44
2021/08/12 09:20:13;;;;;;;4.45;3.58;;;22.40;71.30;;;;;;5093745;28;20139;-43
2021/08/12 09:22:48;;;;;;;3.53;2.90;;;22.40;71.30;;;;;;5094107;28;20109;-43
2021/08/12 09:25:15;;;;;;;4.07;3.42;;;22.40;71.30;;;;;;5093951;28;20388;-42
2021/08/12 09:27:41;;;;;;;4.30;3.83;;;22.40;71.30;;;;;;5094418;28;20044;-43
2021/08/12 09:30:15;;;;;;;4.65;3.55;;;22.40;71.30;;;;;;5094257;28;20040;-43
2021/08/12 09:32:45;;;;;;;3.97;3.33;;;22.50;71.40;;;;;;5093438;28;20043;-43
2021/08/12 09:35:11;;;;;;;4.78;2.80;;;22.50;71.40;;;;;;5093996;28;20036;-44
2021/08/12 09:37:37;;;;;;;3.55;3.10;;;22.50;71.40;;;;;;5093880;28;20052;-45
2021/08/12 09:40:04;;;;;;;3.90;3.50;;;22.50;71.30;;;;;;5094304;28;20063;-43
2021/08/12 09:42:49;;;;;;;3.58;2.78;;;22.50;71.40;;;;;;5093559;28;20044;-48
2021/08/12 09:45:23;;;;;;;3.90;3.45;;;22.50;71.30;;;;;;5091740;28;20036;-47
2021/08/12 09:47:50;;;;;;;3.47;3.15;;;22.50;71.30;;;;;;5093809;28;20098;-43
2021/08/12 09:50:43;;;;;;;3.67;3.13;;;22.50;71.30;;;;;;5094384;28;20487;-43
2021/08/12 09:53:17;;;;;;;3.47;2.95;;;22.50;71.20;;;;;;5090008;28;20044;-44
2021/08/12 09:55:44;;;;;;;3.47;2.78;;;22.60;71.30;;;;;;5093694;28;20044;-43
2021/08/12 09:58:11;;;;;;;4.53;3.10;;;22.60;71.30;;;;;;5093057;28;20051;-50
2021/08/12 10:00:45;;;;;;;4.03;2.70;;;22.60;71.30;;;;;;5093903;28;20044;-45
2021/08/12 10:03:30;;;;;;;3.78;2.92;;;22.60;71.20;;;;;;5093501;28;20164;-46
2021/08/12 10:06:00;;;;;;;2.90;2.60;;;22.60;71.20;;;;;;5093552;28;20070;-49
2021/08/12 10:08:36;;;;;;;3.50;2.83;;;22.60;71.20;;;;;;5093211;28;20124;-44
2021/08/12 10:11:15;;;;;;;4.22;2.95;;;22.60;71.20;;;;;;5091863;28;20032;-45
2021/08/12 10:13:41;;;;;;;3.15;2.58;;;22.60;71.10;;;;;;5091478;28;20036;-43
2021/08/12 10:16:07;;;;;;;3.05;2.45;;;22.60;71.10;;;;;;5092941;28;20036;-45
2021/08/12 10:18:36;;;;;;;2.92;2.38;;;22.60;71.00;;;;;;5091773;28;20407;-46
2021/08/12 10:21:02;;;;;;;3.40;2.63;;;22.70;71.10;;;;;;5091583;28;20385;-46
2021/08/12 10:23:29;;;;;;;3.00;2.65;;;22.70;71.00;;;;;;5093120;28;20120;-48
2021/08/12 10:25:58;;;;;;;3.38;2.58;;;22.70;71.00;;;;;;5093293;28;20047;-51
2021/08/12 10:28:26;;;;;;;3.65;3.13;;;22.70;71.00;;;;;;5093300;28;20377;-45
2021/08/12 10:30:55;;;;;;;3.00;2.50;;;22.70;70.90;;;;;;5093458;28;20055;-49
2021/08/12 10:33:22;;;;;;;3.40;3.10;;;22.80;71.00;;;;;;5092733;28;20044;-47
2021/08/12 10:35:49;;;;;;;3.67;3.15;;;22.80;70.90;;;;;;5092419;28;20126;-46
2021/08/12 10:38:14;;;;;;;3.47;2.30;;;22.80;70.80;;;;;;5092570;28;20067;-48
2021/08/12 10:40:42;;;;;;;3.28;2.78;;;22.80;70.90;;;;;;5093062;28;20457;-47
2021/08/12 10:43:13;;;;;;;3.95;2.83;;;22.80;70.70;;;;;;5092963;28;20067;-46
2021/08/12 10:45:39;;;;;;;3.95;3.20;;;22.80;70.70;;;;;;5092531;28;20150;-48
2021/08/12 10:48:17;;;;;;;3.30;3.00;;;22.90;70.70;;;;;;5092706;28;20048;-47
2021/08/12 10:50:43;;;;;;;2.78;2.53;;;22.90;70.70;;;;;;5092319;28;20503;-47
2021/08/12 10:53:11;;;;;;;3.20;2.75;;;22.90;70.70;;;;;;5092995;28;20173;-46
2021/08/12 10:55:51;;;;;;;3.05;2.70;;;22.90;70.70;;;;;;5092398;28;20118;-49
2021/08/12 10:58:28;;;;;;;3.58;2.80;;;22.90;70.60;;;;;;5091958;28;20476;-49
2021/08/12 11:01:00;;;;;;;3.40;2.97;;;22.90;70.60;;;;;;5093323;28;20048;-48
2021/08/12 11:03:34;;;;;;;3.88;3.03;;;22.90;70.60;;;;;;5092980;28;20493;-49
2021/08/12 11:06:20;;;;;;;2.90;2.60;;;23.00;70.70;;;;;;5092195;28;20411;-45
2021/08/12 11:08:49;;;;;;;3.10;2.70;;;23.00;70.70;;;;;;5092403;28;20452;-47
2021/08/12 11:11:20;;;;;;;3.70;2.80;;;23.00;70.60;;;;;;5092465;28;20119;-45
2021/08/12 11:13:50;;;;;;;3.45;2.63;;;23.00;70.60;;;;;;5092480;28;20047;-48
2021/08/12 11:16:17;;;;;;;3.50;3.00;;;23.10;70.60;;;;;;5092332;28;20043;-48
2021/08/12 11:18:58;;;;;;;3.22;2.85;;;23.10;70.50;;;;;;5092387;28;20048;-47
2021/08/12 11:21:30;;;;;;;2.97;2.63;;;23.10;70.50;;;;;;5089992;28;20040;-45
2021/08/12 11:23:55;;;;;;;3.90;2.92;;;23.10;70.40;;;;;;5091999;28;20044;-47
2021/08/12 11:26:21;;;;;;;3.63;2.80;;;23.10;70.40;;;;;;5092009;28;20044;-47
2021/08/12 11:28:48;;;;;;;3.67;2.95;;;23.10;70.40;;;;;;5092588;28;20040;-49
2021/08/12 11:31:20;;;;;;;3.30;2.83;;;23.10;70.30;;;;;;5091975;28;20458;-47
2021/08/12 11:33:49;;;;;;;2.90;2.60;;;23.10;70.30;;;;;;5091884;28;20040;-47
2021/08/12 11:36:19;;;;;;;3.83;2.85;;;23.10;70.20;;;;;;5091724;28;20044;-45
2021/08/12 11:38:53;;;;;;;3.28;2.72;;;23.20;70.20;;;;;;5091755;28;20134;-48
2021/08/12 11:41:20;;;;;;;4.25;2.90;;;23.10;70.20;;;;;;5089224;28;20051;-46
2021/08/12 11:43:47;;;;;;;2.88;2.53;;;23.20;70.20;;;;;;5092131;28;20050;-48
2021/08/12 11:46:14;;;;;;;2.85;2.60;;;23.20;70.10;;;;;;5091838;28;20048;-47
2021/08/12 11:48:41;;;;;;;2.88;2.65;;;23.20;70.10;;;;;;5089505;28;20048;-45
2021/08/12 11:51:07;;;;;;;3.97;2.70;;;23.20;70.10;;;;;;5092127;28;20039;-46
2021/08/12 11:53:40;;;;;;;3.47;2.80;;;23.20;70.00;;;;;;5091357;28;20408;-47
2021/08/12 11:56:17;;;;;;;2.80;2.50;;;23.30;70.00;;;;;;5089136;28;20048;-45
2021/08/12 11:58:48;;;;;;;3.50;3.00;;;23.20;70.00;;;;;;5088914;28;20502;-46
2021/08/12 12:01:16;;;;;;;4.00;2.50;;;23.20;70.00;;;;;;5091605;28;20435;-45
2021/08/12 12:03:44;;;;;;;3.75;3.20;;;23.20;69.90;;;;;;5091793;28;20036;-44
2021/08/12 12:06:09;;;;;;;3.65;2.90;;;23.30;70.00;;;;;;5091737;28;20040;-48
2021/08/12 12:08:35;;;;;;;3.22;2.70;;;23.30;70.00;;;;;;5091431;28;20487;-44
2021/08/12 12:11:09;;;;;;;5.88;4.10;;;23.30;69.90;;;;;;5091043;28;20037;-44
2021/08/12 12:13:35;;;;;;;6.25;4.22;;;23.40;68.90;;;;;;5091198;28;20054;-44
2021/08/12 12:16:08;;;;;;;5.40;3.90;;;23.60;68.00;;;;;;5090789;28;20039;-45
2021/08/12 12:18:41;;;;;;;6.00;4.70;;;23.80;66.90;;;;;;5091342;28;20048;-44
2021/08/12 12:21:14;;;;;;;4.88;4.18;;;24.00;65.40;;;;;;5090804;28;20149;-47
2021/08/12 12:23:42;;;;;;;6.50;4.68;;;24.10;64.40;;;;;;5095315;28;20047;-45
2021/08/12 12:26:17;;;;;;;7.85;5.20;;;24.20;64.20;;;;;;5094772;28;20067;-46
2021/08/12 12:28:43;;;;;;;7.57;4.43;;;24.30;63.50;;;;;;5095937;28;20404;-46
2021/08/12 12:31:14;;;;;;;5.88;4.40;;;24.40;63.30;;;;;;5095751;28;20040;-47
2021/08/12 12:33:39;;;;;;;5.13;4.63;;;24.50;63.10;;;;;;5095233;28;20480;-46
2021/08/12 12:36:05;;;;;;;4.85;4.28;;;24.60;63.20;;;;;;5095038;28;20131;-42
2021/08/12 12:38:31;;;;;;;5.82;4.95;;;24.60;63.30;;;;;;5095582;28;20087;-45
2021/08/12 12:41:10;;;;;;;7.97;4.68;;;24.60;63.60;;;;;;5095186;28;20051;-45
2021/08/12 12:43:36;;;;;;;5.70;4.40;;;24.50;63.80;;;;;;5095123;28;20070;-48
2021/08/12 12:46:02;;;;;;;5.18;4.60;;;24.50;64.00;;;;;;5094616;28;20051;-48
2021/08/12 12:48:39;;;;;;;6.32;4.75;;;24.40;64.20;;;;;;5095031;28;20350;-45
2021/08/12 12:51:07;;;;;;;5.72;4.22;;;24.40;64.40;;;;;;5095179;28;20506;-47
2021/08/12 12:53:41;;;;;;;6.85;4.25;;;24.30;64.60;;;;;;5095410;28;20039;-46